PST,Max TemperatureF,Mean TemperatureF,Min TemperatureF,Max Dew PointF,MeanDew PointF,Min DewpointF,Max Humidity, Mean Humidity, Min Humidity, Max Sea Level PressureIn, Mean Sea Level PressureIn, Min Sea Level PressureIn, Max VisibilityMiles, Mean VisibilityMiles, Min VisibilityMiles, Max Wind SpeedMPH, Mean Wind SpeedMPH, Max Gust SpeedMPH,PrecipitationIn, CloudCover, Events, WindDirDegrees
2013-11-1,59,47,34,38,34,29,82,63,43,30.26,30.15,29.95,10,10,10,13,4,16,0.00,2,,34
2013-11-2,59,48,36,45,37,28,93,64,35,29.89,29.67,29.53,10,10,4,33,11,44,0.33,4,Rain,250
2013-11-3,52,43,34,31,27,20,82,57,31,30.01,29.93,29.79,10,10,10,17,8,22,0.00,3,,289
2013-11-4,48,40,31,25,20,15,69,49,28,30.18,30.13,30.04,10,10,10,13,6,17,0.00,2,,307
2013-11-5,37,35,32,34,31,25,100,85,69,30.25,30.16,30.13,10,5,1,8,5,10,0.05,8,Snow,11
2013-11-6,41,37,33,36,33,30,92,83,73,30.40,30.33,30.24,10,10,9,12,5,15,0.04,8,Rain,340
2013-11-7,41,39,36,38,37,35,100,93,85,30.22,29.93,29.79,10,7,4,26,6,29,0.13,7,Rain,282
2013-11-8,54,43,32,37,33,29,92,67,41,30.15,30.04,29.91,10,10,10,23,9,28,0.00,1,,242
2013-11-9,45,38,31,38,34,29,92,84,76,30.22,30.18,30.14,10,10,10,15,10,17,0.01,5,Rain,348
2013-11-10,49,45,40,39,37,36,86,76,66,30.27,30.19,30.14,10,10,10,14,9,16,0.00,7,,351
2013-11-11,55,48,41,39,37,35,76,65,54,30.36,30.30,30.25,10,10,10,15,10,18,0.00,3,,352
2013-11-12,46,42,38,42,39,35,93,85,76,30.36,30.30,30.22,10,8,0,8,2,9,0.01,7,Fog-Rain,35
2013-11-13,45,40,34,41,37,33,100,93,85,30.39,30.35,30.27,10,3,0,12,3,13,0.00,5,Fog,29
2013-11-14,48,39,30,39,35,28,100,86,71,30.25,30.07,29.94,10,4,0,10,4,14,0.00,3,Fog,21
2013-11-15,45,38,31,34,32,30,100,81,62,29.93,29.65,29.26,10,5,0,21,7,28,0.00,5,Fog,200
2013-11-16,51,43,34,32,26,21,82,57,32,29.65,29.41,29.20,10,10,10,28,16,37,0.00,1,,266
2013-11-17,,,,,,,,,,29.86,29.79,29.67,,,,,,,0.00,,,-1
2013-11-18,52,49,46,43,41,40,82,73,63,29.84,29.75,29.60,10,10,10,17,13,,0.01,6,Rain,173
2013-11-19,59,48,37,41,29,16,92,61,30,29.90,29.65,29.55,10,10,10,32,13,41,0.01,0,,271
2013-11-20,38,30,22,13,1,-10,42,28,13,30.51,30.29,29.95,10,10,10,23,12,29,0.00,0,,345
2013-11-21,35,26,17,9,6,1,62,45,27,30.74,30.67,30.53,10,10,10,13,5,15,0.00,0,,346
2013-11-22,38,27,16,15,11,7,74,53,32,30.84,30.76,30.69,10,10,10,12,6,14,0.00,0,,337
2013-11-23,39,29,18,16,13,9,73,54,35,30.68,30.55,30.40,10,10,10,12,3,13,0.00,0,,344
2013-11-24,39,28,16,20,17,13,88,66,44,30.44,30.39,30.35,10,10,9,8,4,12,0.00,0,,13
2013-11-25,41,30,18,24,21,16,91,71,50,30.51,30.46,30.42,10,10,10,7,3,9,0.00,0,,356
2013-11-26,41,31,20,27,23,19,92,76,59,30.41,30.32,30.26,10,9,5,7,3,8,0.00,0,,360
2013-11-27,45,32,19,29,24,19,100,75,49,30.26,30.21,30.15,10,9,4,9,4,12,0.00,1,,10
2013-11-28,40,30,20,27,24,18,100,80,59,30.27,30.23,30.19,10,6,0,9,3,12,0.00,0,Fog,30
2013-11-29,32,28,24,29,26,21,92,85,78,30.33,30.28,30.23,4,2,0,7,1,8,T,8,Fog-Rain,19
2013-11-30,32,31,30,31,28,23,100,86,72,30.36,30.29,30.17,4,2,0,7,2,9,0.00,8,Fog,185